COA99 KEWR-VHHH
Flight info
| Callsign | COA99 |
|---|---|
| Flight time | N/A |
| Altitude | 32000 |
| Route | GAYEL Q812 SYR DCT TULEG DCT BOBSU DCT 50N083W 55N090W 59N100W 61N110W/N0490F340 62N120W 63N130W 63N140W DCT ORT DCT BET/N0486F360 DCT NANZA DCT NULUK/N0483F370 R220 NUZAN/N0485F380 DCT 50N160E DCT NOGAL R220 NUBDA/N0486F390 R220 NANAC/N0479F380 R220 NIKON/N0478F400 R220 IXE Y88 NAKTU Y12 KOHWA Y54 TURFY Y24 KOSHI Y50 IGMON A1 ELATO V522 ABBEY |
| Aircraft | B772/H-SDE2E3FGHIJ5LORVWXY/LB1D1 |
Departure
| Time | 2026-04-20 20:10 |
|---|---|
| Airport | Newark Liberty International Airport (KEWR) |
Arrival
| Time | N/A |
|---|---|
| Airport | Hong Kong International Airport (VHHH) |
| Time | Latitude | Longitude | Altitude | Speed | Heading |
|---|---|---|---|---|---|
| 2026-04-20 19:10 | 40.69186 | -74.17323 | 26 ft | 0 kts | 275° |
| 2026-04-20 20:00 | 40.69186 | -74.17318 | 26 ft | 3 kts | 275° |
| 2026-04-20 20:00 | 40.69184 | -74.17291 | 28 ft | 4 kts | 275° |
| 2026-04-20 20:00 | 40.69182 | -74.17256 | 32 ft | 4 kts | 275° |
| 2026-04-20 20:01 | 40.69177 | -74.17224 | 32 ft | 3 kts | 295° |
| 2026-04-20 20:01 | 40.69171 | -74.17198 | 32 ft | 4 kts | 245° |
| 2026-04-20 20:01 | 40.69189 | -74.17177 | 32 ft | 4 kts | 206° |
| 2026-04-20 20:01 | 40.69203 | -74.17168 | 32 ft | 0 kts | 206° |
| 2026-04-20 20:04 | 40.69197 | -74.17171 | 32 ft | 4 kts | 206° |
| 2026-04-20 20:05 | 40.69151 | -74.17201 | 31 ft | 12 kts | 206° |
| 2026-04-20 20:05 | 40.69061 | -74.17258 | 30 ft | 14 kts | 206° |
| 2026-04-20 20:05 | 40.68982 | -74.17309 | 30 ft | 11 kts | 206° |
| 2026-04-20 20:05 | 40.68920 | -74.17349 | 26 ft | 9 kts | 206° |
| 2026-04-20 20:06 | 40.68861 | -74.17386 | 26 ft | 11 kts | 206° |
| 2026-04-20 20:06 | 40.68783 | -74.17436 | 26 ft | 14 kts | 206° |
| 2026-04-20 20:06 | 40.68686 | -74.17497 | 27 ft | 17 kts | 205° |
| 2026-04-20 20:06 | 40.68570 | -74.17569 | 27 ft | 20 kts | 206° |
| 2026-04-20 20:07 | 40.68439 | -74.17653 | 27 ft | 22 kts | 206° |
| 2026-04-20 20:07 | 40.68302 | -74.17740 | 26 ft | 22 kts | 206° |
| 2026-04-20 20:07 | 40.68170 | -74.17824 | 26 ft | 20 kts | 206° |
| 2026-04-20 20:07 | 40.68040 | -74.17907 | 26 ft | 22 kts | 206° |
| 2026-04-20 20:08 | 40.67896 | -74.17999 | 27 ft | 24 kts | 206° |
| 2026-04-20 20:08 | 40.67759 | -74.18071 | 27 ft | 18 kts | 173° |
| 2026-04-20 20:08 | 40.67707 | -74.17993 | 26 ft | 0 kts | 117° |
| 2026-04-20 20:09 | 40.67691 | -74.17954 | 25 ft | 11 kts | 117° |
| 2026-04-20 20:09 | 40.67708 | -74.17841 | 31 ft | 15 kts | 28° |
| 2026-04-20 20:09 | 40.67876 | -74.17733 | 28 ft | 52 kts | 25° |
| 2026-04-20 20:10 | 40.68424 | -74.17383 | 28 ft | 121 kts | 25° |
| 2026-04-20 20:10 | 40.69376 | -74.16796 | 39 ft | 178 kts | 24° |
| 2026-04-20 20:10 | 40.70518 | -74.15980 | 533 ft | 192 kts | 26° |
| 2026-04-20 20:10 | 40.71702 | -74.15081 | 1326 ft | 200 kts | 25° |
| 2026-04-20 20:11 | 40.72999 | -74.14437 | 1867 ft | 207 kts | 0° |
| 2026-04-20 20:11 | 40.74415 | -74.14588 | 2239 ft | 211 kts | 349° |
| 2026-04-20 20:11 | 40.75912 | -74.14926 | 2518 ft | 229 kts | 347° |
| 2026-04-20 20:11 | 40.77507 | -74.15341 | 3056 ft | 236 kts | 347° |
| 2026-04-20 20:12 | 40.79130 | -74.15782 | 3690 ft | 240 kts | 346° |
| 2026-04-20 20:12 | 40.80779 | -74.16279 | 4207 ft | 245 kts | 345° |
| 2026-04-20 20:12 | 40.82448 | -74.16814 | 4825 ft | 247 kts | 345° |
| 2026-04-20 20:13 | 40.85647 | -74.17850 | 5923 ft | 252 kts | 345° |
| 2026-04-20 20:13 | 40.87358 | -74.18401 | 6137 ft | 255 kts | 345° |
| 2026-04-20 20:13 | 40.89104 | -74.18966 | 6571 ft | 259 kts | 343° |
| 2026-04-20 20:13 | 40.90859 | -74.19537 | 7096 ft | 260 kts | 343° |
| 2026-04-20 20:14 | 40.92640 | -74.20117 | 7501 ft | 266 kts | 343° |
| 2026-04-20 20:14 | 40.94448 | -74.20696 | 7997 ft | 268 kts | 343° |
| 2026-04-20 20:14 | 40.96266 | -74.21271 | 8441 ft | 270 kts | 343° |
| 2026-04-20 20:14 | 40.98101 | -74.21862 | 8920 ft | 272 kts | 343° |
| 2026-04-20 20:15 | 40.99946 | -74.22463 | 9400 ft | 273 kts | 343° |
| 2026-04-20 20:15 | 41.01807 | -74.23064 | 9845 ft | 276 kts | 342° |
| 2026-04-20 20:15 | 41.03687 | -74.23673 | 10214 ft | 283 kts | 342° |
| 2026-04-20 20:15 | 41.05657 | -74.24314 | 10348 ft | 299 kts | 342° |
| 2026-04-20 20:16 | 41.07727 | -74.24989 | 10478 ft | 315 kts | 342° |
| 2026-04-20 20:16 | 41.09160 | -74.25457 | 10567 ft | 326 kts | 342° |
| 2026-04-20 20:16 | 41.11423 | -74.26193 | 10723 ft | 344 kts | 342° |
| 2026-04-20 20:16 | 41.13801 | -74.26965 | 10989 ft | 358 kts | 342° |
| 2026-04-20 20:17 | 41.16244 | -74.27754 | 11452 ft | 366 kts | 342° |
| 2026-04-20 20:17 | 41.18744 | -74.28557 | 11992 ft | 372 kts | 342° |
| 2026-04-20 20:17 | 41.21266 | -74.29372 | 12668 ft | 372 kts | 342° |
| 2026-04-20 20:17 | 41.23755 | -74.30179 | 13537 ft | 367 kts | 341° |
| 2026-04-20 20:18 | 41.26237 | -74.30984 | 14199 ft | 367 kts | 341° |
| 2026-04-20 20:18 | 41.28726 | -74.31798 | 14722 ft | 371 kts | 341° |
| 2026-04-20 20:18 | 41.31243 | -74.32620 | 15226 ft | 374 kts | 341° |
| 2026-04-20 20:18 | 41.33781 | -74.33444 | 15773 ft | 376 kts | 341° |
| 2026-04-20 20:19 | 41.36330 | -74.34272 | 16316 ft | 378 kts | 341° |
| 2026-04-20 20:19 | 41.38845 | -74.35231 | 16724 ft | 374 kts | 332° |
| 2026-04-20 20:19 | 41.41036 | -74.37027 | 17110 ft | 368 kts | 313° |
| 2026-04-20 20:19 | 41.42715 | -74.39548 | 17641 ft | 361 kts | 300° |
| 2026-04-20 20:20 | 41.43992 | -74.42414 | 18149 ft | 360 kts | 295° |
| 2026-04-20 20:20 | 41.45207 | -74.45345 | 18579 ft | 363 kts | 295° |
| 2026-04-20 20:20 | 41.46430 | -74.48307 | 18993 ft | 366 kts | 295° |
| 2026-04-20 20:20 | 41.47668 | -74.51291 | 19414 ft | 369 kts | 295° |
| 2026-04-20 20:21 | 41.48923 | -74.54296 | 19832 ft | 372 kts | 295° |
| 2026-04-20 20:21 | 41.50191 | -74.57320 | 20246 ft | 375 kts | 296° |
| 2026-04-20 20:21 | 41.51471 | -74.60364 | 20633 ft | 378 kts | 296° |
| 2026-04-20 20:21 | 41.52763 | -74.63431 | 21018 ft | 380 kts | 296° |
| 2026-04-20 20:22 | 41.54064 | -74.66519 | 21382 ft | 384 kts | 296° |
| 2026-04-20 20:22 | 41.55377 | -74.69639 | 21748 ft | 387 kts | 296° |
| 2026-04-20 20:22 | 41.56697 | -74.72778 | 22151 ft | 389 kts | 296° |
| 2026-04-20 20:22 | 41.58042 | -74.75926 | 22541 ft | 392 kts | 298° |
| 2026-04-20 20:23 | 41.59645 | -74.78905 | 22878 ft | 399 kts | 306° |
| 2026-04-20 20:23 | 41.61503 | -74.81686 | 23231 ft | 404 kts | 310° |
| 2026-04-20 20:23 | 41.63597 | -74.84234 | 23599 ft | 410 kts | 316° |
| 2026-04-20 20:23 | 41.65776 | -74.86621 | 23933 ft | 412 kts | 316° |
| 2026-04-20 20:24 | 41.68006 | -74.89057 | 24256 ft | 415 kts | 316° |
| 2026-04-20 20:24 | 41.70247 | -74.91510 | 24616 ft | 417 kts | 316° |
| 2026-04-20 20:24 | 41.72494 | -74.93978 | 24972 ft | 419 kts | 316° |
| 2026-04-20 20:24 | 41.74752 | -74.96467 | 25300 ft | 421 kts | 316° |
| 2026-04-20 20:25 | 41.77017 | -74.98975 | 25603 ft | 424 kts | 316° |
| 2026-04-20 20:25 | 41.79295 | -75.01506 | 25894 ft | 426 kts | 316° |
| 2026-04-20 20:25 | 41.81582 | -75.04049 | 26204 ft | 429 kts | 316° |
| 2026-04-20 20:25 | 41.83881 | -75.06610 | 26527 ft | 430 kts | 316° |
| 2026-04-20 20:26 | 41.86188 | -75.09177 | 26829 ft | 432 kts | 316° |
| 2026-04-20 20:26 | 41.88504 | -75.11763 | 27107 ft | 434 kts | 316° |
| 2026-04-20 20:26 | 41.90827 | -75.14360 | 27396 ft | 436 kts | 316° |
| 2026-04-20 20:26 | 41.93162 | -75.16970 | 27665 ft | 438 kts | 316° |
| 2026-04-20 20:27 | 41.95508 | -75.19593 | 27924 ft | 440 kts | 316° |
| 2026-04-20 20:27 | 41.97866 | -75.22233 | 28147 ft | 442 kts | 316° |
| 2026-04-20 20:27 | 42.00229 | -75.24883 | 28414 ft | 443 kts | 316° |
| 2026-04-20 20:27 | 42.02595 | -75.27537 | 28665 ft | 444 kts | 316° |
| 2026-04-20 20:28 | 42.04978 | -75.30203 | 28831 ft | 447 kts | 317° |
| 2026-04-20 20:28 | 42.07491 | -75.32713 | 29010 ft | 453 kts | 323° |
| 2026-04-20 20:28 | 42.10203 | -75.34898 | 29244 ft | 455 kts | 326° |
| 2026-04-20 20:28 | 42.12949 | -75.37029 | 29483 ft | 456 kts | 326° |
| 2026-04-20 20:29 | 42.15698 | -75.39178 | 29676 ft | 458 kts | 326° |
| 2026-04-20 20:29 | 42.18452 | -75.41345 | 29858 ft | 459 kts | 326° |
| 2026-04-20 20:29 | 42.21212 | -75.43529 | 30049 ft | 460 kts | 325° |
| 2026-04-20 20:29 | 42.23978 | -75.45728 | 30172 ft | 463 kts | 325° |
| 2026-04-20 20:30 | 42.29552 | -75.50173 | 30265 ft | 468 kts | 325° |
| 2026-04-20 20:30 | 42.35197 | -75.54689 | 30282 ft | 475 kts | 325° |
| 2026-04-20 20:31 | 42.40869 | -75.59228 | 30269 ft | 477 kts | 326° |
| 2026-04-20 20:31 | 42.46578 | -75.63807 | 30274 ft | 477 kts | 325° |
| 2026-04-20 20:32 | 42.52284 | -75.68395 | 30278 ft | 477 kts | 326° |
| 2026-04-20 20:32 | 42.57990 | -75.72993 | 30274 ft | 477 kts | 326° |
| 2026-04-20 20:33 | 42.63686 | -75.77603 | 30280 ft | 476 kts | 325° |
| 2026-04-20 20:33 | 42.69374 | -75.82220 | 30274 ft | 476 kts | 325° |
| 2026-04-20 20:34 | 42.75047 | -75.86834 | 30284 ft | 475 kts | 326° |
| 2026-04-20 20:34 | 42.80716 | -75.91453 | 30286 ft | 475 kts | 326° |
| 2026-04-20 20:35 | 42.86377 | -75.96079 | 30297 ft | 474 kts | 326° |
| 2026-04-20 20:35 | 42.92035 | -76.00703 | 30303 ft | 474 kts | 326° |
| 2026-04-20 20:36 | 42.97678 | -76.05327 | 30319 ft | 472 kts | 326° |
| 2026-04-20 20:36 | 43.03306 | -76.09949 | 30320 ft | 471 kts | 326° |
| 2026-04-20 20:37 | 43.08914 | -76.14567 | 30325 ft | 470 kts | 326° |
| 2026-04-20 20:37 | 43.14507 | -76.19181 | 30331 ft | 469 kts | 326° |
| 2026-04-20 20:38 | 43.20040 | -76.23890 | 30331 ft | 467 kts | 324° |
| 2026-04-20 20:38 | 43.25468 | -76.28783 | 30330 ft | 467 kts | 324° |
| 2026-04-20 20:39 | 43.30893 | -76.33686 | 30334 ft | 467 kts | 324° |
| 2026-04-20 20:39 | 43.36292 | -76.38540 | 30332 ft | 467 kts | 324° |
| 2026-04-20 20:40 | 43.41728 | -76.43423 | 30332 ft | 467 kts | 324° |
| 2026-04-20 20:40 | 43.47164 | -76.48312 | 30333 ft | 468 kts | 324° |
| 2026-04-20 20:41 | 43.52608 | -76.53224 | 30329 ft | 468 kts | 324° |
| 2026-04-20 20:41 | 43.58051 | -76.58146 | 30332 ft | 468 kts | 324° |
| 2026-04-20 20:42 | 43.62616 | -76.62279 | 30332 ft | 468 kts | 324° |